sensor_id;sensor_type;location;lat;lon;timestamp;P1;durP1;ratioP1;P2;durP2;ratioP2
16669;SDS011;8448;52.034;5.158;2023-12-20T00:00:02;11.10;;;2.30;;
16669;SDS011;8448;52.034;5.158;2023-12-20T00:02:32;11.27;;;2.17;;
16669;SDS011;8448;52.034;5.158;2023-12-20T00:05:00;17.27;;;2.57;;
16669;SDS011;8448;52.034;5.158;2023-12-20T00:07:27;12.33;;;2.60;;
16669;SDS011;8448;52.034;5.158;2023-12-20T00:09:54;11.07;;;2.10;;
16669;SDS011;8448;52.034;5.158;2023-12-20T00:12:22;11.73;;;2.60;;
16669;SDS011;8448;52.034;5.158;2023-12-20T00:14:50;12.30;;;2.40;;
16669;SDS011;8448;52.034;5.158;2023-12-20T00:17:18;13.63;;;2.90;;
16669;SDS011;8448;52.034;5.158;2023-12-20T00:19:45;11.00;;;2.43;;
16669;SDS011;8448;52.034;5.158;2023-12-20T00:22:12;10.13;;;2.43;;
16669;SDS011;8448;52.034;5.158;2023-12-20T00:24:40;6.73;;;2.13;;
16669;SDS011;8448;52.034;5.158;2023-12-20T00:27:07;12.17;;;2.50;;
16669;SDS011;8448;52.034;5.158;2023-12-20T00:29:34;14.07;;;2.67;;
16669;SDS011;8448;52.034;5.158;2023-12-20T00:32:03;13.27;;;2.13;;
16669;SDS011;8448;52.034;5.158;2023-12-20T00:34:31;11.07;;;2.67;;
16669;SDS011;8448;52.034;5.158;2023-12-20T00:36:59;11.87;;;2.67;;
16669;SDS011;8448;52.034;5.158;2023-12-20T00:39:26;12.37;;;2.57;;
16669;SDS011;8448;52.034;5.158;2023-12-20T00:41:53;14.00;;;2.43;;
16669;SDS011;8448;52.034;5.158;2023-12-20T00:44:21;16.27;;;3.20;;
16669;SDS011;8448;52.034;5.158;2023-12-20T00:46:48;11.80;;;2.03;;
16669;SDS011;8448;52.034;5.158;2023-12-20T00:49:18;15.03;;;2.30;;
16669;SDS011;8448;52.034;5.158;2023-12-20T00:51:45;14.20;;;2.37;;
16669;SDS011;8448;52.034;5.158;2023-12-20T00:54:15;13.87;;;2.80;;
16669;SDS011;8448;52.034;5.158;2023-12-20T00:56:42;11.80;;;2.30;;
16669;SDS011;8448;52.034;5.158;2023-12-20T00:59:10;15.13;;;2.70;;
16669;SDS011;8448;52.034;5.158;2023-12-20T01:01:37;12.73;;;2.30;;
16669;SDS011;8448;52.034;5.158;2023-12-20T01:04:04;14.50;;;2.60;;
16669;SDS011;8448;52.034;5.158;2023-12-20T01:06:33;14.17;;;2.50;;
16669;SDS011;8448;52.034;5.158;2023-12-20T01:09:01;14.63;;;2.53;;
16669;SDS011;8448;52.034;5.158;2023-12-20T01:11:28;11.83;;;2.60;;
16669;SDS011;8448;52.034;5.158;2023-12-20T01:13:55;13.93;;;2.40;;
16669;SDS011;8448;52.034;5.158;2023-12-20T01:16:23;10.17;;;2.10;;
16669;SDS011;8448;52.034;5.158;2023-12-20T01:18:50;12.93;;;3.53;;
16669;SDS011;8448;52.034;5.158;2023-12-20T01:21:18;11.17;;;2.50;;
16669;SDS011;8448;52.034;5.158;2023-12-20T01:23:46;14.93;;;2.63;;
16669;SDS011;8448;52.034;5.158;2023-12-20T01:26:14;16.03;;;3.40;;
16669;SDS011;8448;52.034;5.158;2023-12-20T01:28:41;13.43;;;2.80;;
16669;SDS011;8448;52.034;5.158;2023-12-20T01:31:08;15.63;;;3.00;;
16669;SDS011;8448;52.034;5.158;2023-12-20T01:33:35;16.13;;;3.63;;
16669;SDS011;8448;52.034;5.158;2023-12-20T01:36:03;16.00;;;2.90;;
16669;SDS011;8448;52.034;5.158;2023-12-20T01:38:31;12.63;;;3.07;;
16669;SDS011;8448;52.034;5.158;2023-12-20T01:40:59;14.30;;;3.33;;
16669;SDS011;8448;52.034;5.158;2023-12-20T01:43:27;18.03;;;2.60;;
16669;SDS011;8448;52.034;5.158;2023-12-20T01:45:55;18.67;;;2.83;;
16669;SDS011;8448;52.034;5.158;2023-12-20T01:48:23;13.57;;;2.70;;
16669;SDS011;8448;52.034;5.158;2023-12-20T01:50:51;16.03;;;3.20;;
16669;SDS011;8448;52.034;5.158;2023-12-20T01:53:19;16.43;;;3.10;;
16669;SDS011;8448;52.034;5.158;2023-12-20T01:55:48;12.07;;;3.07;;
16669;SDS011;8448;52.034;5.158;2023-12-20T01:58:19;12.10;;;2.93;;
16669;SDS011;8448;52.034;5.158;2023-12-20T02:00:47;14.90;;;3.10;;
16669;SDS011;8448;52.034;5.158;2023-12-20T02:03:15;15.77;;;3.40;;
16669;SDS011;8448;52.034;5.158;2023-12-20T02:05:42;17.53;;;3.07;;
16669;SDS011;8448;52.034;5.158;2023-12-20T02:08:11;13.90;;;3.40;;
16669;SDS011;8448;52.034;5.158;2023-12-20T02:10:39;14.53;;;3.30;;
16669;SDS011;8448;52.034;5.158;2023-12-20T02:13:06;20.43;;;3.60;;
16669;SDS011;8448;52.034;5.158;2023-12-20T02:15:34;23.53;;;3.80;;
16669;SDS011;8448;52.034;5.158;2023-12-20T02:18:03;19.30;;;3.90;;
16669;SDS011;8448;52.034;5.158;2023-12-20T02:20:31;18.23;;;3.10;;
16669;SDS011;8448;52.034;5.158;2023-12-20T02:22:59;16.43;;;3.67;;
16669;SDS011;8448;52.034;5.158;2023-12-20T02:25:27;18.60;;;3.37;;
16669;SDS011;8448;52.034;5.158;2023-12-20T02:27:54;12.93;;;3.40;;
16669;SDS011;8448;52.034;5.158;2023-12-20T02:30:22;12.67;;;3.43;;
16669;SDS011;8448;52.034;5.158;2023-12-20T02:32:50;15.03;;;3.20;;
16669;SDS011;8448;52.034;5.158;2023-12-20T02:35:18;23.13;;;3.90;;
16669;SDS011;8448;52.034;5.158;2023-12-20T02:37:45;17.30;;;3.93;;
16669;SDS011;8448;52.034;5.158;2023-12-20T02:40:14;14.53;;;3.07;;
16669;SDS011;8448;52.034;5.158;2023-12-20T02:42:42;17.33;;;3.60;;
16669;SDS011;8448;52.034;5.158;2023-12-20T02:45:09;20.83;;;3.83;;
16669;SDS011;8448;52.034;5.158;2023-12-20T02:47:36;12.93;;;2.80;;
16669;SDS011;8448;52.034;5.158;2023-12-20T02:50:04;18.47;;;4.07;;
16669;SDS011;8448;52.034;5.158;2023-12-20T02:52:32;16.87;;;3.63;;
16669;SDS011;8448;52.034;5.158;2023-12-20T02:54:59;16.17;;;3.73;;
16669;SDS011;8448;52.034;5.158;2023-12-20T02:57:28;17.43;;;3.93;;
16669;SDS011;8448;52.034;5.158;2023-12-20T02:59:55;14.03;;;3.07;;
16669;SDS011;8448;52.034;5.158;2023-12-20T03:02:22;16.17;;;3.03;;
16669;SDS011;8448;52.034;5.158;2023-12-20T03:04:50;16.20;;;3.33;;
16669;SDS011;8448;52.034;5.158;2023-12-20T03:07:17;19.70;;;3.13;;
16669;SDS011;8448;52.034;5.158;2023-12-20T03:09:44;19.57;;;3.30;;
16669;SDS011;8448;52.034;5.158;2023-12-20T03:12:12;15.17;;;3.13;;
16669;SDS011;8448;52.034;5.158;2023-12-20T03:14:42;15.03;;;3.23;;
16669;SDS011;8448;52.034;5.158;2023-12-20T03:17:10;20.53;;;3.47;;
16669;SDS011;8448;52.034;5.158;2023-12-20T03:19:37;18.70;;;3.33;;
16669;SDS011;8448;52.034;5.158;2023-12-20T03:22:05;21.73;;;3.20;;
16669;SDS011;8448;52.034;5.158;2023-12-20T03:24:32;15.70;;;3.43;;
16669;SDS011;8448;52.034;5.158;2023-12-20T03:27:00;18.73;;;3.40;;
16669;SDS011;8448;52.034;5.158;2023-12-20T03:29:27;19.57;;;3.37;;
16669;SDS011;8448;52.034;5.158;2023-12-20T03:31:56;12.03;;;3.03;;
16669;SDS011;8448;52.034;5.158;2023-12-20T03:34:23;16.20;;;3.20;;
16669;SDS011;8448;52.034;5.158;2023-12-20T03:36:50;12.63;;;2.67;;
16669;SDS011;8448;52.034;5.158;2023-12-20T03:39:18;14.87;;;2.87;;
16669;SDS011;8448;52.034;5.158;2023-12-20T03:41:45;17.27;;;3.87;;
16669;SDS011;8448;52.034;5.158;2023-12-20T03:44:13;17.80;;;3.50;;
16669;SDS011;8448;52.034;5.158;2023-12-20T03:46:40;15.77;;;3.10;;
16669;SDS011;8448;52.034;5.158;2023-12-20T03:49:09;16.57;;;3.20;;
16669;SDS011;8448;52.034;5.158;2023-12-20T03:51:36;18.60;;;3.40;;
16669;SDS011;8448;52.034;5.158;2023-12-20T03:54:04;14.00;;;3.30;;
16669;SDS011;8448;52.034;5.158;2023-12-20T03:56:31;16.73;;;3.10;;
16669;SDS011;8448;52.034;5.158;2023-12-20T03:58:58;22.67;;;3.17;;
16669;SDS011;8448;52.034;5.158;2023-12-20T04:01:26;17.30;;;2.90;;
16669;SDS011;8448;52.034;5.158;2023-12-20T04:03:53;19.97;;;3.33;;
16669;SDS011;8448;52.034;5.158;2023-12-20T04:06:22;13.60;;;3.20;;
16669;SDS011;8448;52.034;5.158;2023-12-20T04:08:49;18.73;;;3.70;;
16669;SDS011;8448;52.034;5.158;2023-12-20T04:11:17;18.87;;;3.80;;
16669;SDS011;8448;52.034;5.158;2023-12-20T04:13:44;17.47;;;3.70;;
16669;SDS011;8448;52.034;5.158;2023-12-20T04:16:11;20.70;;;3.70;;
16669;SDS011;8448;52.034;5.158;2023-12-20T04:18:39;18.13;;;3.47;;
16669;SDS011;8448;52.034;5.158;2023-12-20T04:21:06;16.37;;;3.07;;
16669;SDS011;8448;52.034;5.158;2023-12-20T04:23:35;12.30;;;3.27;;
16669;SDS011;8448;52.034;5.158;2023-12-20T04:26:02;16.30;;;3.27;;
16669;SDS011;8448;52.034;5.158;2023-12-20T04:28:30;16.43;;;3.20;;
16669;SDS011;8448;52.034;5.158;2023-12-20T04:30:57;15.67;;;2.90;;
16669;SDS011;8448;52.034;5.158;2023-12-20T04:33:24;19.77;;;3.13;;
16669;SDS011;8448;52.034;5.158;2023-12-20T04:35:51;20.27;;;3.97;;
16669;SDS011;8448;52.034;5.158;2023-12-20T04:38:19;13.20;;;3.20;;
16669;SDS011;8448;52.034;5.158;2023-12-20T04:40:48;19.87;;;3.90;;
16669;SDS011;8448;52.034;5.158;2023-12-20T04:43:15;17.27;;;3.17;;
16669;SDS011;8448;52.034;5.158;2023-12-20T04:45:43;16.27;;;2.97;;
16669;SDS011;8448;52.034;5.158;2023-12-20T04:48:10;14.83;;;3.40;;
16669;SDS011;8448;52.034;5.158;2023-12-20T04:50:38;16.13;;;3.10;;
16669;SDS011;8448;52.034;5.158;2023-12-20T04:53:05;15.00;;;3.30;;
16669;SDS011;8448;52.034;5.158;2023-12-20T04:55:32;18.53;;;3.27;;
16669;SDS011;8448;52.034;5.158;2023-12-20T04:58:01;18.63;;;3.30;;
16669;SDS011;8448;52.034;5.158;2023-12-20T05:00:28;22.07;;;3.67;;
16669;SDS011;8448;52.034;5.158;2023-12-20T05:02:56;15.23;;;3.57;;
16669;SDS011;8448;52.034;5.158;2023-12-20T05:05:23;14.83;;;2.80;;
16669;SDS011;8448;52.034;5.158;2023-12-20T05:07:51;15.67;;;3.67;;
16669;SDS011;8448;52.034;5.158;2023-12-20T05:10:18;11.90;;;3.10;;
16669;SDS011;8448;52.034;5.158;2023-12-20T05:12:46;14.23;;;3.17;;
16669;SDS011;8448;52.034;5.158;2023-12-20T05:15:14;15.27;;;3.23;;
16669;SDS011;8448;52.034;5.158;2023-12-20T05:17:42;15.23;;;3.77;;
16669;SDS011;8448;52.034;5.158;2023-12-20T05:20:09;22.20;;;3.47;;
16669;SDS011;8448;52.034;5.158;2023-12-20T05:22:36;17.20;;;2.47;;
16669;SDS011;8448;52.034;5.158;2023-12-20T05:25:04;13.23;;;3.23;;
16669;SDS011;8448;52.034;5.158;2023-12-20T05:27:32;24.77;;;4.00;;
16669;SDS011;8448;52.034;5.158;2023-12-20T05:29:59;17.23;;;3.70;;
16669;SDS011;8448;52.034;5.158;2023-12-20T05:32:28;14.87;;;3.20;;
16669;SDS011;8448;52.034;5.158;2023-12-20T05:34:56;15.07;;;3.37;;
16669;SDS011;8448;52.034;5.158;2023-12-20T05:37:23;14.30;;;3.40;;
16669;SDS011;8448;52.034;5.158;2023-12-20T05:39:51;20.17;;;3.63;;
16669;SDS011;8448;52.034;5.158;2023-12-20T05:42:18;14.33;;;3.10;;
16669;SDS011;8448;52.034;5.158;2023-12-20T05:44:45;16.23;;;3.30;;
16669;SDS011;8448;52.034;5.158;2023-12-20T05:47:12;16.37;;;3.20;;
16669;SDS011;8448;52.034;5.158;2023-12-20T05:49:41;15.20;;;3.67;;
16669;SDS011;8448;52.034;5.158;2023-12-20T05:52:09;15.43;;;3.30;;
16669;SDS011;8448;52.034;5.158;2023-12-20T05:54:37;15.47;;;3.17;;
16669;SDS011;8448;52.034;5.158;2023-12-20T05:57:04;20.20;;;3.63;;
16669;SDS011;8448;52.034;5.158;2023-12-20T05:59:32;14.53;;;3.53;;
16669;SDS011;8448;52.034;5.158;2023-12-20T06:01:59;14.67;;;2.77;;
16669;SDS011;8448;52.034;5.158;2023-12-20T06:04:26;17.43;;;3.00;;
16669;SDS011;8448;52.034;5.158;2023-12-20T06:06:55;21.97;;;3.60;;
16669;SDS011;8448;52.034;5.158;2023-12-20T06:09:22;15.07;;;2.97;;
16669;SDS011;8448;52.034;5.158;2023-12-20T06:11:50;20.60;;;3.60;;
16669;SDS011;8448;52.034;5.158;2023-12-20T06:14:17;18.30;;;3.20;;
16669;SDS011;8448;52.034;5.158;2023-12-20T06:16:45;15.23;;;3.50;;
16669;SDS011;8448;52.034;5.158;2023-12-20T06:19:12;13.37;;;3.20;;
16669;SDS011;8448;52.034;5.158;2023-12-20T06:21:40;16.87;;;3.93;;
16669;SDS011;8448;52.034;5.158;2023-12-20T06:24:08;20.07;;;3.40;;
16669;SDS011;8448;52.034;5.158;2023-12-20T06:26:36;19.73;;;3.73;;
16669;SDS011;8448;52.034;5.158;2023-12-20T06:29:03;18.63;;;3.40;;
16669;SDS011;8448;52.034;5.158;2023-12-20T06:31:30;17.17;;;3.40;;
16669;SDS011;8448;52.034;5.158;2023-12-20T06:33:58;14.93;;;3.20;;
16669;SDS011;8448;52.034;5.158;2023-12-20T06:36:26;18.50;;;3.83;;
16669;SDS011;8448;52.034;5.158;2023-12-20T06:38:53;15.33;;;3.60;;
16669;SDS011;8448;52.034;5.158;2023-12-20T06:41:22;14.63;;;3.43;;
16669;SDS011;8448;52.034;5.158;2023-12-20T06:43:50;16.70;;;3.60;;
16669;SDS011;8448;52.034;5.158;2023-12-20T06:46:18;18.50;;;3.07;;
16669;SDS011;8448;52.034;5.158;2023-12-20T06:48:45;23.03;;;4.03;;
16669;SDS011;8448;52.034;5.158;2023-12-20T06:51:13;19.42;;;3.83;;
16669;SDS011;8448;52.034;5.158;2023-12-20T06:53:41;14.50;;;3.30;;
16669;SDS011;8448;52.034;5.158;2023-12-20T06:56:09;23.83;;;4.03;;
16669;SDS011;8448;52.034;5.158;2023-12-20T06:58:39;17.70;;;3.40;;
16669;SDS011;8448;52.034;5.158;2023-12-20T07:01:10;21.67;;;3.93;;
16669;SDS011;8448;52.034;5.158;2023-12-20T07:03:38;16.20;;;3.33;;
16669;SDS011;8448;52.034;5.158;2023-12-20T07:06:05;19.37;;;3.57;;
16669;SDS011;8448;52.034;5.158;2023-12-20T07:08:32;14.33;;;3.47;;
16669;SDS011;8448;52.034;5.158;2023-12-20T07:11:01;17.83;;;3.53;;
16669;SDS011;8448;52.034;5.158;2023-12-20T07:13:29;15.87;;;3.50;;
16669;SDS011;8448;52.034;5.158;2023-12-20T07:15:58;13.83;;;3.57;;
16669;SDS011;8448;52.034;5.158;2023-12-20T07:18:25;15.13;;;3.17;;
16669;SDS011;8448;52.034;5.158;2023-12-20T07:20:52;17.17;;;4.07;;
16669;SDS011;8448;52.034;5.158;2023-12-20T07:23:20;18.90;;;3.90;;
16669;SDS011;8448;52.034;5.158;2023-12-20T07:25:47;17.13;;;3.50;;
16669;SDS011;8448;52.034;5.158;2023-12-20T07:28:15;17.27;;;3.60;;
16669;SDS011;8448;52.034;5.158;2023-12-20T07:30:44;18.73;;;3.95;;
16669;SDS011;8448;52.034;5.158;2023-12-20T07:33:13;17.37;;;3.63;;
16669;SDS011;8448;52.034;5.158;2023-12-20T07:35:40;13.77;;;3.53;;
16669;SDS011;8448;52.034;5.158;2023-12-20T07:38:08;19.67;;;3.95;;
16669;SDS011;8448;52.034;5.158;2023-12-20T07:40:35;20.60;;;4.53;;
16669;SDS011;8448;52.034;5.158;2023-12-20T07:43:04;17.03;;;3.50;;
16669;SDS011;8448;52.034;5.158;2023-12-20T07:45:31;19.77;;;3.87;;
16669;SDS011;8448;52.034;5.158;2023-12-20T07:47:58;18.47;;;3.77;;
16669;SDS011;8448;52.034;5.158;2023-12-20T07:50:27;16.80;;;4.00;;
16669;SDS011;8448;52.034;5.158;2023-12-20T07:52:54;15.27;;;3.60;;
16669;SDS011;8448;52.034;5.158;2023-12-20T07:55:24;17.47;;;3.30;;
16669;SDS011;8448;52.034;5.158;2023-12-20T07:57:51;16.60;;;3.40;;
16669;SDS011;8448;52.034;5.158;2023-12-20T08:00:19;16.87;;;3.53;;
16669;SDS011;8448;52.034;5.158;2023-12-20T08:02:46;19.30;;;2.93;;
16669;SDS011;8448;52.034;5.158;2023-12-20T08:05:14;22.67;;;3.83;;
16669;SDS011;8448;52.034;5.158;2023-12-20T08:07:42;17.87;;;3.70;;
16669;SDS011;8448;52.034;5.158;2023-12-20T08:10:10;20.77;;;4.23;;
16669;SDS011;8448;52.034;5.158;2023-12-20T08:12:37;17.10;;;3.73;;
16669;SDS011;8448;52.034;5.158;2023-12-20T08:15:06;15.03;;;3.40;;
16669;SDS011;8448;52.034;5.158;2023-12-20T08:17:33;17.73;;;3.70;;
16669;SDS011;8448;52.034;5.158;2023-12-20T08:20:01;18.80;;;3.67;;
16669;SDS011;8448;52.034;5.158;2023-12-20T08:22:29;17.00;;;3.60;;
16669;SDS011;8448;52.034;5.158;2023-12-20T08:24:58;20.03;;;3.63;;
16669;SDS011;8448;52.034;5.158;2023-12-20T08:27:26;11.77;;;3.43;;
16669;SDS011;8448;52.034;5.158;2023-12-20T08:29:53;15.17;;;4.17;;
16669;SDS011;8448;52.034;5.158;2023-12-20T08:32:21;15.50;;;3.80;;
16669;SDS011;8448;52.034;5.158;2023-12-20T08:34:48;19.33;;;3.47;;
16669;SDS011;8448;52.034;5.158;2023-12-20T08:37:15;21.53;;;4.23;;
16669;SDS011;8448;52.034;5.158;2023-12-20T08:39:43;17.17;;;2.90;;
16669;SDS011;8448;52.034;5.158;2023-12-20T08:42:12;20.53;;;4.10;;
16669;SDS011;8448;52.034;5.158;2023-12-20T08:44:40;20.90;;;3.90;;
16669;SDS011;8448;52.034;5.158;2023-12-20T08:47:07;20.10;;;3.90;;
16669;SDS011;8448;52.034;5.158;2023-12-20T08:49:38;19.43;;;3.40;;
16669;SDS011;8448;52.034;5.158;2023-12-20T08:52:05;16.67;;;3.20;;
16669;SDS011;8448;52.034;5.158;2023-12-20T08:54:32;14.97;;;3.80;;
16669;SDS011;8448;52.034;5.158;2023-12-20T08:57:00;18.57;;;3.30;;
16669;SDS011;8448;52.034;5.158;2023-12-20T08:59:29;15.73;;;3.43;;
16669;SDS011;8448;52.034;5.158;2023-12-20T09:01:56;19.03;;;3.73;;
16669;SDS011;8448;52.034;5.158;2023-12-20T09:04:23;20.27;;;4.80;;
16669;SDS011;8448;52.034;5.158;2023-12-20T09:06:51;12.87;;;3.20;;
16669;SDS011;8448;52.034;5.158;2023-12-20T09:09:18;18.03;;;3.77;;
16669;SDS011;8448;52.034;5.158;2023-12-20T09:11:46;18.83;;;4.67;;
16669;SDS011;8448;52.034;5.158;2023-12-20T09:14:15;20.23;;;4.10;;
16669;SDS011;8448;52.034;5.158;2023-12-20T09:16:44;15.17;;;3.80;;
16669;SDS011;8448;52.034;5.158;2023-12-20T09:19:11;14.37;;;3.20;;
16669;SDS011;8448;52.034;5.158;2023-12-20T09:21:38;16.30;;;3.00;;
16669;SDS011;8448;52.034;5.158;2023-12-20T09:24:06;18.23;;;4.03;;
16669;SDS011;8448;52.034;5.158;2023-12-20T09:26:34;20.73;;;3.57;;
16669;SDS011;8448;52.034;5.158;2023-12-20T09:29:01;14.27;;;3.17;;
16669;SDS011;8448;52.034;5.158;2023-12-20T09:31:28;19.60;;;3.73;;
16669;SDS011;8448;52.034;5.158;2023-12-20T09:33:57;14.27;;;3.00;;
16669;SDS011;8448;52.034;5.158;2023-12-20T09:36:25;16.67;;;3.43;;
16669;SDS011;8448;52.034;5.158;2023-12-20T09:38:52;13.33;;;2.50;;
16669;SDS011;8448;52.034;5.158;2023-12-20T09:41:19;17.80;;;3.17;;
16669;SDS011;8448;52.034;5.158;2023-12-20T09:43:47;15.73;;;3.20;;
16669;SDS011;8448;52.034;5.158;2023-12-20T09:46:15;16.53;;;3.10;;
16669;SDS011;8448;52.034;5.158;2023-12-20T09:48:45;17.83;;;3.30;;
16669;SDS011;8448;52.034;5.158;2023-12-20T09:51:14;16.67;;;3.10;;
16669;SDS011;8448;52.034;5.158;2023-12-20T09:53:42;20.37;;;3.50;;
16669;SDS011;8448;52.034;5.158;2023-12-20T09:56:10;11.87;;;2.80;;
16669;SDS011;8448;52.034;5.158;2023-12-20T09:58:38;15.03;;;3.40;;
16669;SDS011;8448;52.034;5.158;2023-12-20T10:01:05;15.27;;;3.10;;
16669;SDS011;8448;52.034;5.158;2023-12-20T10:03:33;14.43;;;2.90;;
16669;SDS011;8448;52.034;5.158;2023-12-20T10:06:01;16.03;;;3.50;;
16669;SDS011;8448;52.034;5.158;2023-12-20T10:08:31;13.70;;;3.27;;
16669;SDS011;8448;52.034;5.158;2023-12-20T10:10:58;19.00;;;3.13;;
16669;SDS011;8448;52.034;5.158;2023-12-20T10:13:28;13.67;;;3.17;;
16669;SDS011;8448;52.034;5.158;2023-12-20T10:15:55;14.50;;;3.20;;
16669;SDS011;8448;52.034;5.158;2023-12-20T10:18:23;13.83;;;3.07;;
16669;SDS011;8448;52.034;5.158;2023-12-20T10:20:51;20.67;;;3.00;;
16669;SDS011;8448;52.034;5.158;2023-12-20T10:23:18;17.77;;;3.23;;
16669;SDS011;8448;52.034;5.158;2023-12-20T10:25:56;17.57;;;3.20;;
16669;SDS011;8448;52.034;5.158;2023-12-20T10:28:24;16.40;;;3.83;;
16669;SDS011;8448;52.034;5.158;2023-12-20T10:30:53;13.13;;;3.03;;
16669;SDS011;8448;52.034;5.158;2023-12-20T10:33:23;17.03;;;3.13;;
16669;SDS011;8448;52.034;5.158;2023-12-20T10:35:51;22.23;;;3.40;;
16669;SDS011;8448;52.034;5.158;2023-12-20T10:38:19;14.53;;;3.47;;
16669;SDS011;8448;52.034;5.158;2023-12-20T10:40:47;14.33;;;2.93;;
16669;SDS011;8448;52.034;5.158;2023-12-20T10:43:16;19.63;;;3.80;;
16669;SDS011;8448;52.034;5.158;2023-12-20T10:45:43;12.00;;;2.97;;
16669;SDS011;8448;52.034;5.158;2023-12-20T10:48:10;16.83;;;2.90;;
16669;SDS011;8448;52.034;5.158;2023-12-20T10:50:38;20.10;;;3.03;;
16669;SDS011;8448;52.034;5.158;2023-12-20T10:53:05;12.97;;;2.70;;
16669;SDS011;8448;52.034;5.158;2023-12-20T10:55:33;15.97;;;2.57;;
16669;SDS011;8448;52.034;5.158;2023-12-20T10:58:02;15.00;;;3.00;;
16669;SDS011;8448;52.034;5.158;2023-12-20T11:00:34;11.00;;;2.67;;
16669;SDS011;8448;52.034;5.158;2023-12-20T11:03:04;14.43;;;2.43;;
16669;SDS011;8448;52.034;5.158;2023-12-20T11:05:35;19.50;;;2.97;;
16669;SDS011;8448;52.034;5.158;2023-12-20T11:08:07;14.57;;;2.60;;
16669;SDS011;8448;52.034;5.158;2023-12-20T11:10:39;12.90;;;2.50;;
16669;SDS011;8448;52.034;5.158;2023-12-20T11:13:10;15.60;;;2.90;;
16669;SDS011;8448;52.034;5.158;2023-12-20T11:15:43;11.13;;;2.90;;
16669;SDS011;8448;52.034;5.158;2023-12-20T11:18:11;10.57;;;2.77;;
16669;SDS011;8448;52.034;5.158;2023-12-20T11:20:39;12.07;;;2.23;;
16669;SDS011;8448;52.034;5.158;2023-12-20T11:23:07;12.93;;;2.87;;
16669;SDS011;8448;52.034;5.158;2023-12-20T11:25:48;12.53;;;2.70;;
16669;SDS011;8448;52.034;5.158;2023-12-20T11:28:20;10.63;;;2.87;;
16669;SDS011;8448;52.034;5.158;2023-12-20T11:30:51;16.13;;;3.10;;
16669;SDS011;8448;52.034;5.158;2023-12-20T11:33:22;11.07;;;2.67;;
16669;SDS011;8448;52.034;5.158;2023-12-20T11:35:50;12.50;;;2.90;;
16669;SDS011;8448;52.034;5.158;2023-12-20T11:38:19;14.67;;;3.17;;
16669;SDS011;8448;52.034;5.158;2023-12-20T11:40:47;19.60;;;3.33;;
16669;SDS011;8448;52.034;5.158;2023-12-20T11:43:29;12.90;;;3.27;;
16669;SDS011;8448;52.034;5.158;2023-12-20T11:46:03;14.33;;;2.90;;
16669;SDS011;8448;52.034;5.158;2023-12-20T11:48:31;10.00;;;2.87;;
16669;SDS011;8448;52.034;5.158;2023-12-20T11:51:00;13.20;;;2.80;;
16669;SDS011;8448;52.034;5.158;2023-12-20T11:53:29;8.77;;;2.40;;
16669;SDS011;8448;52.034;5.158;2023-12-20T11:55:57;13.60;;;3.00;;
16669;SDS011;8448;52.034;5.158;2023-12-20T11:58:25;13.70;;;2.83;;
16669;SDS011;8448;52.034;5.158;2023-12-20T12:00:52;20.53;;;3.37;;
16669;SDS011;8448;52.034;5.158;2023-12-20T12:03:21;16.07;;;3.00;;
16669;SDS011;8448;52.034;5.158;2023-12-20T12:05:49;13.47;;;2.97;;
16669;SDS011;8448;52.034;5.158;2023-12-20T12:08:16;11.10;;;2.73;;
16669;SDS011;8448;52.034;5.158;2023-12-20T12:10:56;16.50;;;2.90;;
16669;SDS011;8448;52.034;5.158;2023-12-20T12:13:24;11.50;;;2.63;;
16669;SDS011;8448;52.034;5.158;2023-12-20T12:15:55;10.87;;;2.33;;
16669;SDS011;8448;52.034;5.158;2023-12-20T12:18:24;12.53;;;2.83;;
16669;SDS011;8448;52.034;5.158;2023-12-20T12:20:59;11.53;;;2.43;;
16669;SDS011;8448;52.034;5.158;2023-12-20T12:23:27;11.40;;;3.03;;
16669;SDS011;8448;52.034;5.158;2023-12-20T12:25:54;13.87;;;3.00;;
16669;SDS011;8448;52.034;5.158;2023-12-20T12:28:25;13.33;;;2.50;;
16669;SDS011;8448;52.034;5.158;2023-12-20T12:30:57;13.13;;;2.60;;
16669;SDS011;8448;52.034;5.158;2023-12-20T12:33:26;14.90;;;2.43;;
16669;SDS011;8448;52.034;5.158;2023-12-20T12:35:53;13.57;;;2.83;;
16669;SDS011;8448;52.034;5.158;2023-12-20T12:38:21;11.20;;;2.57;;
16669;SDS011;8448;52.034;5.158;2023-12-20T12:40:49;15.17;;;3.17;;
16669;SDS011;8448;52.034;5.158;2023-12-20T12:43:18;13.67;;;2.87;;
16669;SDS011;8448;52.034;5.158;2023-12-20T12:45:47;13.77;;;2.30;;
16669;SDS011;8448;52.034;5.158;2023-12-20T12:48:15;17.83;;;2.83;;
16669;SDS011;8448;52.034;5.158;2023-12-20T12:50:45;17.97;;;2.67;;
16669;SDS011;8448;52.034;5.158;2023-12-20T12:53:12;13.23;;;2.60;;
16669;SDS011;8448;52.034;5.158;2023-12-20T12:55:39;11.47;;;2.33;;
16669;SDS011;8448;52.034;5.158;2023-12-20T12:58:07;12.00;;;2.83;;
16669;SDS011;8448;52.034;5.158;2023-12-20T13:00:35;16.27;;;3.30;;
16669;SDS011;8448;52.034;5.158;2023-12-20T13:03:02;16.60;;;3.00;;
16669;SDS011;8448;52.034;5.158;2023-12-20T13:05:29;9.20;;;2.50;;
16669;SDS011;8448;52.034;5.158;2023-12-20T13:07:58;10.20;;;2.70;;
16669;SDS011;8448;52.034;5.158;2023-12-20T13:10:26;12.80;;;2.77;;
16669;SDS011;8448;52.034;5.158;2023-12-20T13:12:53;9.20;;;2.10;;
16669;SDS011;8448;52.034;5.158;2023-12-20T13:15:21;9.80;;;2.30;;
16669;SDS011;8448;52.034;5.158;2023-12-20T13:17:48;11.10;;;2.57;;
16669;SDS011;8448;52.034;5.158;2023-12-20T13:20:15;12.30;;;2.47;;
16669;SDS011;8448;52.034;5.158;2023-12-20T13:22:43;11.33;;;2.20;;
16669;SDS011;8448;52.034;5.158;2023-12-20T13:25:12;11.70;;;2.27;;
16669;SDS011;8448;52.034;5.158;2023-12-20T13:27:39;11.20;;;2.40;;
16669;SDS011;8448;52.034;5.158;2023-12-20T13:30:09;14.80;;;2.83;;
16669;SDS011;8448;52.034;5.158;2023-12-20T13:32:37;12.87;;;2.30;;
16669;SDS011;8448;52.034;5.158;2023-12-20T13:35:05;11.07;;;2.60;;
16669;SDS011;8448;52.034;5.158;2023-12-20T13:37:32;13.97;;;2.83;;
16669;SDS011;8448;52.034;5.158;2023-12-20T13:40:00;10.97;;;2.37;;
16669;SDS011;8448;52.034;5.158;2023-12-20T13:42:29;10.07;;;2.40;;
16669;SDS011;8448;52.034;5.158;2023-12-20T13:44:57;12.63;;;2.53;;
16669;SDS011;8448;52.034;5.158;2023-12-20T13:47:24;13.63;;;2.60;;
16669;SDS011;8448;52.034;5.158;2023-12-20T13:49:51;11.63;;;2.40;;
16669;SDS011;8448;52.034;5.158;2023-12-20T13:52:19;11.67;;;2.50;;
16669;SDS011;8448;52.034;5.158;2023-12-20T13:54:46;13.00;;;2.90;;
16669;SDS011;8448;52.034;5.158;2023-12-20T13:57:17;10.43;;;2.23;;
16669;SDS011;8448;52.034;5.158;2023-12-20T13:59:46;8.73;;;2.93;;
16669;SDS011;8448;52.034;5.158;2023-12-20T14:02:13;12.00;;;2.40;;
16669;SDS011;8448;52.034;5.158;2023-12-20T14:04:41;8.93;;;2.30;;
16669;SDS011;8448;52.034;5.158;2023-12-20T14:07:08;13.17;;;2.20;;
16669;SDS011;8448;52.034;5.158;2023-12-20T14:09:37;12.60;;;2.40;;
16669;SDS011;8448;52.034;5.158;2023-12-20T14:12:07;13.43;;;2.60;;
16669;SDS011;8448;52.034;5.158;2023-12-20T14:14:35;13.17;;;2.60;;
16669;SDS011;8448;52.034;5.158;2023-12-20T14:17:03;14.70;;;2.67;;
16669;SDS011;8448;52.034;5.158;2023-12-20T14:19:32;10.97;;;2.17;;
16669;SDS011;8448;52.034;5.158;2023-12-20T14:21:59;11.97;;;2.50;;
16669;SDS011;8448;52.034;5.158;2023-12-20T14:24:28;16.63;;;2.83;;
16669;SDS011;8448;52.034;5.158;2023-12-20T14:26:55;14.97;;;2.83;;
16669;SDS011;8448;52.034;5.158;2023-12-20T14:29:23;12.83;;;2.63;;
16669;SDS011;8448;52.034;5.158;2023-12-20T14:31:52;11.07;;;2.80;;
16669;SDS011;8448;52.034;5.158;2023-12-20T14:34:21;11.27;;;2.53;;
16669;SDS011;8448;52.034;5.158;2023-12-20T14:36:49;10.43;;;2.33;;
16669;SDS011;8448;52.034;5.158;2023-12-20T14:39:17;11.60;;;2.87;;
16669;SDS011;8448;52.034;5.158;2023-12-20T14:41:45;16.10;;;3.10;;
16669;SDS011;8448;52.034;5.158;2023-12-20T14:44:12;11.27;;;2.53;;
16669;SDS011;8448;52.034;5.158;2023-12-20T14:46:40;15.13;;;3.03;;
16669;SDS011;8448;52.034;5.158;2023-12-20T14:49:07;13.70;;;2.87;;
16669;SDS011;8448;52.034;5.158;2023-12-20T14:51:36;11.87;;;2.63;;